logo
Rechercher aéroport 
image banner adimage banner adimage banner ad
image banner ad

FAHOTA - Hotazel

Situé à , South Africa

ICAO - , IATA -

Données fournies par Airmate  

Information générale

Coordonnées: S27°12'50" E22°56'47"
Élévation : 3474 feet MSL.
 
Voir autres Aéroports à Northern Cape

Données opérationnelles

Special qualification required
Heure actuelle UTC:
Heure actuelle locale:
Météo à : - ( 0 km )
METAR: KDVP 240653Z AUTO 16004KT 10SM -VCTSRA SCT042 SCT065 BKN075 17/10 A2963 RMK AO2 LTG DSNT ALQS T01680096
Voir NOTAMs / SUP AIP / TFR affectant cet aéroport [VIEW]
Fréquences de communication: [VIEW]

Pistes:

Identifiant RWYQFULongueur (ft)Largeur (ft)SurfaceLDA (ft)
02144°518439ASPH
20324°518439ASPH

Coordonnées de l'aéroport

Adresse: South Africa

Vue satellite de FAHOTA